sensor_id;sensor_type;location;lat;lon;timestamp;pressure;altitude;pressure_sealevel;temperature;humidity
11345;BME280;5727;42.600;23.028;2024-03-23T00:55:59;93719.00;;;4.55;100.00
11345;BME280;5727;42.600;23.028;2024-03-23T00:58:25;93726.78;;;4.55;100.00
11345;BME280;5727;42.600;23.028;2024-03-23T01:00:52;93716.19;;;4.51;100.00
11345;BME280;5727;42.600;23.028;2024-03-23T01:03:17;93718.41;;;4.44;100.00
11345;BME280;5727;42.600;23.028;2024-03-23T01:05:46;93721.84;;;4.40;100.00
11345;BME280;5727;42.600;23.028;2024-03-23T01:08:12;93708.88;;;4.40;100.00
11345;BME280;5727;42.600;23.028;2024-03-23T01:10:38;93720.44;;;4.34;100.00
11345;BME280;5727;42.600;23.028;2024-03-23T01:13:04;93719.44;;;4.30;100.00
11345;BME280;5727;42.600;23.028;2024-03-23T01:15:31;93719.16;;;4.31;100.00
11345;BME280;5727;42.600;23.028;2024-03-23T01:17:57;93712.72;;;4.29;100.00
11345;BME280;5727;42.600;23.028;2024-03-23T01:20:24;93719.03;;;4.23;100.00
11345;BME280;5727;42.600;23.028;2024-03-23T01:22:51;93715.75;;;4.17;100.00
11345;BME280;5727;42.600;23.028;2024-03-23T01:25:18;93714.53;;;4.15;100.00
11345;BME280;5727;42.600;23.028;2024-03-23T01:27:44;93714.53;;;4.15;100.00
11345;BME280;5727;42.600;23.028;2024-03-23T01:30:11;93720.28;;;4.12;100.00
11345;BME280;5727;42.600;23.028;2024-03-23T01:32:39;93712.78;;;4.10;100.00
11345;BME280;5727;42.600;23.028;2024-03-23T01:35:06;93724.41;;;4.13;100.00
11345;BME280;5727;42.600;23.028;2024-03-23T01:37:32;93712.00;;;4.10;100.00
11345;BME280;5727;42.600;23.028;2024-03-23T01:40:01;93713.38;;;4.07;100.00
11345;BME280;5727;42.600;23.028;2024-03-23T01:42:29;93713.63;;;4.06;100.00
11345;BME280;5727;42.600;23.028;2024-03-23T01:44:56;93715.25;;;4.02;100.00
11345;BME280;5727;42.600;23.028;2024-03-23T01:47:22;93712.38;;;4.03;100.00
11345;BME280;5727;42.600;23.028;2024-03-23T01:49:49;93718.31;;;4.04;100.00
11345;BME280;5727;42.600;23.028;2024-03-23T01:52:15;93721.97;;;4.03;100.00
11345;BME280;5727;42.600;23.028;2024-03-23T01:54:42;93715.25;;;4.02;100.00
11345;BME280;5727;42.600;23.028;2024-03-23T01:57:10;93717.94;;;3.97;100.00
11345;BME280;5727;42.600;23.028;2024-03-23T01:59:39;93716.41;;;3.96;100.00
11345;BME280;5727;42.600;23.028;2024-03-23T02:02:05;93716.41;;;3.96;100.00
11345;BME280;5727;42.600;23.028;2024-03-23T02:04:32;93715.34;;;3.97;100.00
11345;BME280;5727;42.600;23.028;2024-03-23T02:06:58;93711.28;;;3.91;100.00
11345;BME280;5727;42.600;23.028;2024-03-23T02:09:25;93709.28;;;3.88;100.00
11345;BME280;5727;42.600;23.028;2024-03-23T02:11:51;93710.78;;;3.89;100.00
11345;BME280;5727;42.600;23.028;2024-03-23T02:14:19;93709.81;;;3.85;100.00
11345;BME280;5727;42.600;23.028;2024-03-23T02:16:45;93719.94;;;3.86;100.00
11345;BME280;5727;42.600;23.028;2024-03-23T02:19:12;93720.41;;;3.69;100.00
11345;BME280;5727;42.600;23.028;2024-03-23T02:21:38;93703.69;;;3.62;100.00
11345;BME280;5727;42.600;23.028;2024-03-23T02:24:07;93714.13;;;3.76;100.00
11345;BME280;5727;42.600;23.028;2024-03-23T02:26:33;93711.81;;;3.74;100.00
11345;BME280;5727;42.600;23.028;2024-03-23T02:29:00;93711.31;;;3.72;100.00
11345;BME280;5727;42.600;23.028;2024-03-23T02:31:26;93717.81;;;3.69;100.00
11345;BME280;5727;42.600;23.028;2024-03-23T02:33:53;93712.94;;;3.68;100.00
11345;BME280;5727;42.600;23.028;2024-03-23T02:36:19;93719.13;;;3.53;100.00
11345;BME280;5727;42.600;23.028;2024-03-23T02:38:46;93718.88;;;3.50;100.00
11345;BME280;5727;42.600;23.028;2024-03-23T02:41:14;93710.88;;;3.51;100.00
11345;BME280;5727;42.600;23.028;2024-03-23T02:43:48;93718.06;;;3.54;100.00
11345;BME280;5727;42.600;23.028;2024-03-23T02:46:14;93716.25;;;3.55;100.00
11345;BME280;5727;42.600;23.028;2024-03-23T02:48:41;93719.38;;;3.52;100.00
11345;BME280;5727;42.600;23.028;2024-03-23T02:51:07;93713.72;;;3.50;100.00
11345;BME280;5727;42.600;23.028;2024-03-23T02:53:34;93719.66;;;3.50;100.00
11345;BME280;5727;42.600;23.028;2024-03-23T02:56:00;93714.50;;;3.50;100.00
11345;BME280;5727;42.600;23.028;2024-03-23T02:58:28;93706.03;;;3.45;100.00
11345;BME280;5727;42.600;23.028;2024-03-23T03:00:55;93713.00;;;3.44;100.00
11345;BME280;5727;42.600;23.028;2024-03-23T03:03:22;93706.78;;;3.45;100.00
11345;BME280;5727;42.600;23.028;2024-03-23T03:05:47;93708.63;;;3.45;100.00
11345;BME280;5727;42.600;23.028;2024-03-23T03:08:14;93710.72;;;3.43;100.00
11345;BME280;5727;42.600;23.028;2024-03-23T03:10:40;93705.81;;;3.41;100.00
11345;BME280;5727;42.600;23.028;2024-03-23T03:13:07;93715.81;;;3.29;100.00
11345;BME280;5727;42.600;23.028;2024-03-23T03:15:34;93717.53;;;3.15;100.00
11345;BME280;5727;42.600;23.028;2024-03-23T03:18:01;93709.78;;;3.15;100.00
11345;BME280;5727;42.600;23.028;2024-03-23T03:20:27;93706.00;;;2.89;100.00
11345;BME280;5727;42.600;23.028;2024-03-23T03:22:54;93717.72;;;2.58;100.00
11345;BME280;5727;42.600;23.028;2024-03-23T03:25:20;93713.13;;;2.55;100.00
11345;BME280;5727;42.600;23.028;2024-03-23T03:27:47;93715.28;;;2.19;100.00
11345;BME280;5727;42.600;23.028;2024-03-23T03:30:13;93713.44;;;2.25;100.00
11345;BME280;5727;42.600;23.028;2024-03-23T03:32:41;93713.06;;;2.08;100.00
11345;BME280;5727;42.600;23.028;2024-03-23T03:35:07;93707.03;;;1.88;100.00
11345;BME280;5727;42.600;23.028;2024-03-23T03:37:34;93707.03;;;1.88;100.00
11345;BME280;5727;42.600;23.028;2024-03-23T03:40:00;93705.63;;;2.01;100.00
11345;BME280;5727;42.600;23.028;2024-03-23T03:42:27;93707.34;;;2.11;100.00
11345;BME280;5727;42.600;23.028;2024-03-23T03:44:53;93708.00;;;2.21;100.00
11345;BME280;5727;42.600;23.028;2024-03-23T03:47:20;93710.38;;;2.18;100.00
11345;BME280;5727;42.600;23.028;2024-03-23T03:49:47;93714.19;;;2.25;100.00
11345;BME280;5727;42.600;23.028;2024-03-23T03:52:14;93704.31;;;2.32;100.00
11345;BME280;5727;42.600;23.028;2024-03-23T03:54:40;93715.88;;;2.40;100.00
11345;BME280;5727;42.600;23.028;2024-03-23T03:57:07;93707.03;;;2.41;100.00
11345;BME280;5727;42.600;23.028;2024-03-23T03:59:33;93714.53;;;2.42;100.00
11345;BME280;5727;42.600;23.028;2024-03-23T04:02:00;93706.50;;;2.44;100.00
11345;BME280;5727;42.600;23.028;2024-03-23T04:04:26;93715.81;;;2.45;100.00
11345;BME280;5727;42.600;23.028;2024-03-23T04:06:59;93712.13;;;2.51;100.00
11345;BME280;5727;42.600;23.028;2024-03-23T04:09:25;93718.28;;;2.55;100.00
11345;BME280;5727;42.600;23.028;2024-03-23T04:11:52;93713.88;;;2.55;100.00
11345;BME280;5727;42.600;23.028;2024-03-23T04:14:18;93717.72;;;2.58;100.00
11345;BME280;5727;42.600;23.028;2024-03-23T04:16:45;93722.69;;;2.54;100.00
11345;BME280;5727;42.600;23.028;2024-03-23T04:19:11;93723.94;;;2.57;100.00
11345;BME280;5727;42.600;23.028;2024-03-23T04:21:38;93718.78;;;2.57;100.00
11345;BME280;5727;42.600;23.028;2024-03-23T04:24:05;93723.09;;;2.61;100.00
11345;BME280;5727;42.600;23.028;2024-03-23T04:26:40;93712.75;;;2.61;100.00
11345;BME280;5727;42.600;23.028;2024-03-23T04:29:06;93721.03;;;2.63;100.00
11345;BME280;5727;42.600;23.028;2024-03-23T04:31:33;93723.84;;;2.67;100.00
11345;BME280;5727;42.600;23.028;2024-03-23T04:34:00;93717.63;;;2.68;100.00
11345;BME280;5727;42.600;23.028;2024-03-23T04:36:27;93716.84;;;2.67;100.00
11345;BME280;5727;42.600;23.028;2024-03-23T04:38:53;93718.94;;;2.65;100.00
11345;BME280;5727;42.600;23.028;2024-03-23T04:41:21;93724.81;;;2.71;100.00
11345;BME280;5727;42.600;23.028;2024-03-23T04:43:48;93713.22;;;2.68;100.00
11345;BME280;5727;42.600;23.028;2024-03-23T04:46:15;93720.03;;;2.59;100.00
11345;BME280;5727;42.600;23.028;2024-03-23T04:48:42;93723.75;;;2.53;100.00
11345;BME280;5727;42.600;23.028;2024-03-23T04:51:10;93726.06;;;2.50;100.00
11345;BME280;5727;42.600;23.028;2024-03-23T04:53:38;93737.28;;;2.40;100.00
11345;BME280;5727;42.600;23.028;2024-03-23T04:56:05;93726.28;;;2.30;100.00
11345;BME280;5727;42.600;23.028;2024-03-23T04:58:32;93723.50;;;1.98;100.00
11345;BME280;5727;42.600;23.028;2024-03-23T05:00:59;93731.13;;;1.79;100.00
11345;BME280;5727;42.600;23.028;2024-03-23T05:03:25;93728.44;;;1.60;100.00
11345;BME280;5727;42.600;23.028;2024-03-23T05:05:52;93723.31;;;1.50;100.00
11345;BME280;5727;42.600;23.028;2024-03-23T05:08:18;93725.03;;;1.26;100.00
11345;BME280;5727;42.600;23.028;2024-03-23T05:10:45;93727.13;;;1.19;100.00
11345;BME280;5727;42.600;23.028;2024-03-23T05:13:11;93730.38;;;1.35;100.00
11345;BME280;5727;42.600;23.028;2024-03-23T05:15:40;93723.88;;;1.42;100.00
11345;BME280;5727;42.600;23.028;2024-03-23T05:18:06;93721.63;;;1.36;100.00
11345;BME280;5727;42.600;23.028;2024-03-23T05:20:33;93721.84;;;1.39;100.00
11345;BME280;5727;42.600;23.028;2024-03-23T05:22:59;93727.22;;;1.48;100.00
11345;BME280;5727;42.600;23.028;2024-03-23T05:25:26;93721.78;;;1.49;100.00
11345;BME280;5727;42.600;23.028;2024-03-23T05:27:52;93712.38;;;1.63;100.00
11345;BME280;5727;42.600;23.028;2024-03-23T05:30:19;93717.31;;;1.60;100.00
11345;BME280;5727;42.600;23.028;2024-03-23T05:32:46;93726.47;;;1.81;100.00
11345;BME280;5727;42.600;23.028;2024-03-23T05:35:13;93720.25;;;1.82;100.00
11345;BME280;5727;42.600;23.028;2024-03-23T05:37:39;93722.03;;;1.86;100.00
11345;BME280;5727;42.600;23.028;2024-03-23T05:40:06;93726.66;;;1.90;100.00
11345;BME280;5727;42.600;23.028;2024-03-23T05:42:34;93727.59;;;1.99;100.00
11345;BME280;5727;42.600;23.028;2024-03-23T05:45:01;93720.72;;;2.18;100.00
11345;BME280;5727;42.600;23.028;2024-03-23T05:47:27;93723.44;;;2.31;100.00
11345;BME280;5727;42.600;23.028;2024-03-23T05:49:55;93728.28;;;2.38;100.00
11345;BME280;5727;42.600;23.028;2024-03-23T05:52:21;93727.50;;;2.37;100.00
11345;BME280;5727;42.600;23.028;2024-03-23T05:54:50;93726.44;;;2.38;100.00
11345;BME280;5727;42.600;23.028;2024-03-23T05:57:16;93717.00;;;2.29;100.00
11345;BME280;5727;42.600;23.028;2024-03-23T05:59:44;93719.03;;;2.32;100.00
11345;BME280;5727;42.600;23.028;2024-03-23T06:02:10;93717.88;;;2.43;100.00
11345;BME280;5727;42.600;23.028;2024-03-23T06:04:37;93715.53;;;2.46;100.00
11345;BME280;5727;42.600;23.028;2024-03-23T06:07:06;93710.81;;;2.53;100.00
11345;BME280;5727;42.600;23.028;2024-03-23T06:09:39;93705.25;;;2.41;100.00
11345;BME280;5727;42.600;23.028;2024-03-23T06:12:05;93703.09;;;2.48;100.00
11345;BME280;5727;42.600;23.028;2024-03-23T06:14:32;93705.50;;;2.63;100.00
11345;BME280;5727;42.600;23.028;2024-03-23T06:16:58;93709.13;;;2.86;100.00
11345;BME280;5727;42.600;23.028;2024-03-23T06:19:25;93706.47;;;2.91;100.00
11345;BME280;5727;42.600;23.028;2024-03-23T06:21:53;93711.81;;;3.00;100.00
11345;BME280;5727;42.600;23.028;2024-03-23T06:24:21;93712.94;;;3.12;100.00
11345;BME280;5727;42.600;23.028;2024-03-23T06:26:48;93713.44;;;3.14;100.00
11345;BME280;5727;42.600;23.028;2024-03-23T06:29:15;93710.44;;;3.26;100.00
11345;BME280;5727;42.600;23.028;2024-03-23T06:31:41;93712.41;;;3.34;100.00
11345;BME280;5727;42.600;23.028;2024-03-23T06:34:08;93711.91;;;3.32;100.00
11345;BME280;5727;42.600;23.028;2024-03-23T06:36:34;93710.34;;;3.31;100.00
11345;BME280;5727;42.600;23.028;2024-03-23T06:39:04;93709.09;;;3.47;100.00
11345;BME280;5727;42.600;23.028;2024-03-23T06:41:31;93713.44;;;3.51;100.00
11345;BME280;5727;42.600;23.028;2024-03-23T06:43:58;93712.31;;;3.57;100.00
11345;BME280;5727;42.600;23.028;2024-03-23T06:46:24;93705.94;;;3.68;100.00
11345;BME280;5727;42.600;23.028;2024-03-23T06:48:51;93705.06;;;3.73;100.00
11345;BME280;5727;42.600;23.028;2024-03-23T06:51:17;93704.81;;;3.75;100.00
11345;BME280;5727;42.600;23.028;2024-03-23T06:53:44;93703.66;;;3.81;100.00
11345;BME280;5727;42.600;23.028;2024-03-23T06:56:10;93708.69;;;3.91;100.00
11345;BME280;5727;42.600;23.028;2024-03-23T06:58:38;93700.78;;;4.14;100.00
11345;BME280;5727;42.600;23.028;2024-03-23T07:01:04;93698.59;;;4.35;100.00
11345;BME280;5727;42.600;23.028;2024-03-23T07:03:31;93699.41;;;4.49;100.00
11345;BME280;5727;42.600;23.028;2024-03-23T07:05:58;93686.44;;;4.49;100.00
11345;BME280;5727;42.600;23.028;2024-03-23T07:08:25;93687.47;;;4.61;100.00
11345;BME280;5727;42.600;23.028;2024-03-23T07:10:50;93695.56;;;4.74;100.00
11345;BME280;5727;42.600;23.028;2024-03-23T07:13:17;93684.97;;;4.97;100.00
11345;BME280;5727;42.600;23.028;2024-03-23T07:15:51;93687.78;;;5.23;100.00
11345;BME280;5727;42.600;23.028;2024-03-23T07:18:18;93682.38;;;5.33;100.00
11345;BME280;5727;42.600;23.028;2024-03-23T07:20:52;93682.00;;;5.39;100.00
11345;BME280;5727;42.600;23.028;2024-03-23T07:23:19;93674.91;;;5.53;100.00
11345;BME280;5727;42.600;23.028;2024-03-23T07:25:45;93674.84;;;5.67;100.00
11345;BME280;5727;42.600;23.028;2024-03-23T07:28:12;93677.41;;;5.81;100.00
11345;BME280;5727;42.600;23.028;2024-03-23T07:30:38;93679.25;;;6.02;100.00
11345;BME280;5727;42.600;23.028;2024-03-23T07:33:06;93679.50;;;6.14;100.00
11345;BME280;5727;42.600;23.028;2024-03-23T07:35:32;93676.81;;;6.28;100.00
11345;BME280;5727;42.600;23.028;2024-03-23T07:37:59;93674.75;;;6.47;100.00
11345;BME280;5727;42.600;23.028;2024-03-23T07:40:30;93671.00;;;6.70;100.00
11345;BME280;5727;42.600;23.028;2024-03-23T07:42:57;93669.50;;;6.78;100.00
11345;BME280;5727;42.600;23.028;2024-03-23T07:45:23;93667.88;;;6.99;100.00
11345;BME280;5727;42.600;23.028;2024-03-23T07:47:50;93663.59;;;7.11;100.00
11345;BME280;5727;42.600;23.028;2024-03-23T07:50:18;93661.00;;;7.28;100.00
11345;BME280;5727;42.600;23.028;2024-03-23T07:52:44;93661.16;;;7.40;100.00
11345;BME280;5727;42.600;23.028;2024-03-23T07:55:10;93663.19;;;7.61;100.00
11345;BME280;5727;42.600;23.028;2024-03-23T07:57:37;93657.63;;;7.71;100.00
11345;BME280;5727;42.600;23.028;2024-03-23T08:00:04;93657.63;;;7.96;100.00
11345;BME280;5727;42.600;23.028;2024-03-23T08:02:31;93657.72;;;8.17;100.00
11345;BME280;5727;42.600;23.028;2024-03-23T08:04:57;93655.22;;;8.38;100.00
11345;BME280;5727;42.600;23.028;2024-03-23T08:07:26;93639.66;;;8.58;100.00
11345;BME280;5727;42.600;23.028;2024-03-23T08:09:52;93646.44;;;8.80;100.00
11345;BME280;5727;42.600;23.028;2024-03-23T08:12:18;93649.47;;;8.90;100.00
11345;BME280;5727;42.600;23.028;2024-03-23T08:14:45;93652.75;;;9.08;97.64
11345;BME280;5727;42.600;23.028;2024-03-23T08:17:12;93649.41;;;9.28;96.58
11345;BME280;5727;42.600;23.028;2024-03-23T08:19:38;93642.41;;;9.41;93.68
11345;BME280;5727;42.600;23.028;2024-03-23T08:22:07;93647.75;;;9.65;92.44
11345;BME280;5727;42.600;23.028;2024-03-23T08:24:35;93641.72;;;9.85;91.98
11345;BME280;5727;42.600;23.028;2024-03-23T08:27:02;93641.63;;;9.93;89.78
11345;BME280;5727;42.600;23.028;2024-03-23T08:29:30;93641.19;;;10.12;91.44
11345;BME280;5727;42.600;23.028;2024-03-23T08:31:57;93640.34;;;10.32;87.85
11345;BME280;5727;42.600;23.028;2024-03-23T08:34:23;93641.34;;;10.40;86.80
11345;BME280;5727;42.600;23.028;2024-03-23T08:36:50;93637.47;;;10.58;86.30
11345;BME280;5727;42.600;23.028;2024-03-23T08:39:16;93634.28;;;10.76;87.13
11345;BME280;5727;42.600;23.028;2024-03-23T08:41:44;93636.59;;;10.90;79.84
11345;BME280;5727;42.600;23.028;2024-03-23T08:44:11;93629.59;;;10.94;79.65
11345;BME280;5727;42.600;23.028;2024-03-23T08:46:38;93628.72;;;10.90;76.38
11345;BME280;5727;42.600;23.028;2024-03-23T08:49:04;93621.41;;;10.95;75.14
11345;BME280;5727;42.600;23.028;2024-03-23T08:51:31;93625.09;;;11.06;74.71
11345;BME280;5727;42.600;23.028;2024-03-23T08:53:57;93614.41;;;11.12;74.13
11345;BME280;5727;42.600;23.028;2024-03-23T08:56:24;93619.06;;;11.30;72.09
11345;BME280;5727;42.600;23.028;2024-03-23T08:58:51;93615.88;;;11.37;70.99
11345;BME280;5727;42.600;23.028;2024-03-23T09:01:18;93611.78;;;11.51;69.21
11345;BME280;5727;42.600;23.028;2024-03-23T09:03:44;93609.94;;;11.52;68.13
11345;BME280;5727;42.600;23.028;2024-03-23T09:06:12;93611.03;;;11.51;65.22
11345;BME280;5727;42.600;23.028;2024-03-23T09:08:39;93609.59;;;11.53;65.78
11345;BME280;5727;42.600;23.028;2024-03-23T09:11:07;93596.56;;;11.69;59.22
11345;BME280;5727;42.600;23.028;2024-03-23T09:13:34;93592.34;;;11.80;59.13
11345;BME280;5727;42.600;23.028;2024-03-23T09:16:03;93588.56;;;11.93;57.12
11345;BME280;5727;42.600;23.028;2024-03-23T09:18:31;93580.47;;;11.98;55.21
11345;BME280;5727;42.600;23.028;2024-03-23T09:20:58;93574.97;;;12.19;54.33
11345;BME280;5727;42.600;23.028;2024-03-23T09:23:25;93565.34;;;12.38;53.17
11345;BME280;5727;42.600;23.028;2024-03-23T09:25:52;93562.94;;;12.49;49.55
11345;BME280;5727;42.600;23.028;2024-03-23T09:28:18;93556.25;;;12.51;46.98
11345;BME280;5727;42.600;23.028;2024-03-23T09:30:44;93554.88;;;12.73;47.94
11345;BME280;5727;42.600;23.028;2024-03-23T09:33:13;93556.66;;;12.84;48.26
11345;BME280;5727;42.600;23.028;2024-03-23T09:35:39;93545.09;;;12.89;49.16
11345;BME280;5727;42.600;23.028;2024-03-23T09:38:07;93548.13;;;13.07;47.10
11345;BME280;5727;42.600;23.028;2024-03-23T09:40:34;93543.69;;;13.11;45.17
11345;BME280;5727;42.600;23.028;2024-03-23T09:43:02;93543.16;;;13.21;42.93
11345;BME280;5727;42.600;23.028;2024-03-23T09:45:28;93532.38;;;13.26;45.84
11345;BME280;5727;42.600;23.028;2024-03-23T09:47:56;93531.22;;;13.23;46.03
11345;BME280;5727;42.600;23.028;2024-03-23T09:50:23;93531.41;;;13.34;43.21
11345;BME280;5727;42.600;23.028;2024-03-23T09:52:50;93523.56;;;13.37;40.37
11345;BME280;5727;42.600;23.028;2024-03-23T09:55:16;93515.91;;;13.48;40.62
11345;BME280;5727;42.600;23.028;2024-03-23T09:57:43;93518.31;;;13.56;38.36
11345;BME280;5727;42.600;23.028;2024-03-23T10:00:10;93517.69;;;13.63;36.66
11345;BME280;5727;42.600;23.028;2024-03-23T10:02:38;93510.63;;;13.67;36.48
11345;BME280;5727;42.600;23.028;2024-03-23T10:05:05;93506.53;;;13.69;34.89
11345;BME280;5727;42.600;23.028;2024-03-23T10:07:48;93498.50;;;13.43;33.90
11345;BME280;5727;42.600;23.028;2024-03-23T10:10:16;93499.59;;;13.61;36.09
11345;BME280;5727;42.600;23.028;2024-03-23T10:12:44;93493.84;;;13.75;36.52
11345;BME280;5727;42.600;23.028;2024-03-23T10:15:18;93495.09;;;13.81;35.14
11345;BME280;5727;42.600;23.028;2024-03-23T10:17:45;93490.13;;;13.79;32.12
11345;BME280;5727;42.600;23.028;2024-03-23T10:20:12;93489.41;;;13.79;30.19
11345;BME280;5727;42.600;23.028;2024-03-23T10:22:38;93488.56;;;13.75;31.27
11345;BME280;5727;42.600;23.028;2024-03-23T10:25:10;93481.66;;;13.90;32.83
11345;BME280;5727;42.600;23.028;2024-03-23T10:27:36;93480.91;;;13.89;32.30
11345;BME280;5727;42.600;23.028;2024-03-23T10:30:08;93480.91;;;13.89;32.94
11345;BME280;5727;42.600;23.028;2024-03-23T10:32:34;93476.69;;;14.07;32.68
11345;BME280;5727;42.600;23.028;2024-03-23T10:35:14;93469.91;;;13.84;32.00
11345;BME280;5727;42.600;23.028;2024-03-23T10:37:41;93463.75;;;13.76;32.50
11345;BME280;5727;42.600;23.028;2024-03-23T10:40:12;93460.59;;;13.67;32.42
11345;BME280;5727;42.600;23.028;2024-03-23T10:42:38;93462.53;;;13.70;32.16
11345;BME280;5727;42.600;23.028;2024-03-23T10:45:07;93456.66;;;13.57;32.22
11345;BME280;5727;42.600;23.028;2024-03-23T10:47:35;93446.78;;;13.73;32.79
11345;BME280;5727;42.600;23.028;2024-03-23T10:50:03;93445.63;;;13.71;33.13
11345;BME280;5727;42.600;23.028;2024-03-23T10:52:30;93442.94;;;13.67;33.42
11345;BME280;5727;42.600;23.028;2024-03-23T10:54:58;93439.78;;;13.81;32.88
11345;BME280;5727;42.600;23.028;2024-03-23T10:57:33;93435.41;;;13.89;33.50
11345;BME280;5727;42.600;23.028;2024-03-23T11:00:02;93427.25;;;13.97;34.00
11345;BME280;5727;42.600;23.028;2024-03-23T11:02:28;93419.16;;;14.09;33.92
11345;BME280;5727;42.600;23.028;2024-03-23T11:04:55;93413.69;;;14.21;37.59
11345;BME280;5727;42.600;23.028;2024-03-23T11:07:31;93406.13;;;14.42;37.48
11345;BME280;5727;42.600;23.028;2024-03-23T11:09:59;93399.94;;;14.57;36.01
11345;BME280;5727;42.600;23.028;2024-03-23T11:12:30;93396.66;;;14.68;36.85
11345;BME280;5727;42.600;23.028;2024-03-23T11:15:02;93383.50;;;14.68;33.99
11345;BME280;5727;42.600;23.028;2024-03-23T11:17:30;93382.75;;;14.71;35.75
11345;BME280;5727;42.600;23.028;2024-03-23T11:19:58;93375.72;;;14.82;34.30
11345;BME280;5727;42.600;23.028;2024-03-23T11:22:43;93372.09;;;14.93;34.59
11345;BME280;5727;42.600;23.028;2024-03-23T11:25:16;93380.31;;;14.85;35.08
11345;BME280;5727;42.600;23.028;2024-03-23T11:27:44;93366.84;;;14.97;33.84
11345;BME280;5727;42.600;23.028;2024-03-23T11:30:13;93367.25;;;14.99;32.49
11345;BME280;5727;42.600;23.028;2024-03-23T11:32:39;93365.53;;;15.13;35.00
11345;BME280;5727;42.600;23.028;2024-03-23T11:35:07;93352.06;;;15.25;32.88
11345;BME280;5727;42.600;23.028;2024-03-23T11:37:34;93345.72;;;15.30;32.34
11345;BME280;5727;42.600;23.028;2024-03-23T11:40:16;93345.13;;;15.43;33.40
11345;BME280;5727;42.600;23.028;2024-03-23T11:42:44;93334.94;;;15.42;33.49
11345;BME280;5727;42.600;23.028;2024-03-23T11:45:12;93320.69;;;15.50;34.35
11345;BME280;5727;42.600;23.028;2024-03-23T11:47:38;93321.47;;;15.54;34.56
11345;BME280;5727;42.600;23.028;2024-03-23T11:50:05;93319.34;;;15.74;35.21
11345;BME280;5727;42.600;23.028;2024-03-23T11:52:31;93320.88;;;15.75;32.60
11345;BME280;5727;42.600;23.028;2024-03-23T11:55:08;93302.72;;;15.70;31.71
11345;BME280;5727;42.600;23.028;2024-03-23T11:57:34;93304.22;;;15.67;32.01
11345;BME280;5727;42.600;23.028;2024-03-23T12:00:21;93307.94;;;15.63;32.53
11345;BME280;5727;42.600;23.028;2024-03-23T12:02:47;93295.28;;;15.38;32.39
11345;BME280;5727;42.600;23.028;2024-03-23T12:05:15;93297.09;;;15.31;32.92
11345;BME280;5727;42.600;23.028;2024-03-23T12:07:41;93291.09;;;15.34;33.52
11345;BME280;5727;42.600;23.028;2024-03-23T12:10:08;93279.28;;;15.61;34.91
11345;BME280;5727;42.600;23.028;2024-03-23T12:12:34;93279.06;;;16.56;32.62
11345;BME280;5727;42.600;23.028;2024-03-23T12:15:05;93273.97;;;17.89;30.28
11345;BME280;5727;42.600;23.028;2024-03-23T12:17:31;93281.50;;;19.12;28.13
11345;BME280;5727;42.600;23.028;2024-03-23T12:19:58;93261.25;;;21.22;26.17
11345;BME280;5727;42.600;23.028;2024-03-23T12:22:25;93263.72;;;21.59;25.93
11345;BME280;5727;42.600;23.028;2024-03-23T12:24:52;93256.69;;;24.13;23.80
11345;BME280;5727;42.600;23.028;2024-03-23T12:27:18;93246.72;;;25.75;21.95
11345;BME280;5727;42.600;23.028;2024-03-23T12:29:45;93247.75;;;27.24;21.04
11345;BME280;5727;42.600;23.028;2024-03-23T12:32:14;93246.78;;;27.08;21.29
11345;BME280;5727;42.600;23.028;2024-03-23T12:34:42;93242.63;;;27.16;20.13
11345;BME280;5727;42.600;23.028;2024-03-23T12:37:08;93235.34;;;28.42;19.39
11345;BME280;5727;42.600;23.028;2024-03-23T12:39:35;93229.34;;;29.52;18.65
11345;BME280;5727;42.600;23.028;2024-03-23T12:42:02;93222.56;;;29.56;18.61
11345;BME280;5727;42.600;23.028;2024-03-23T12:44:29;93214.78;;;29.82;18.61
11345;BME280;5727;42.600;23.028;2024-03-23T12:46:55;93216.53;;;29.94;18.37
11345;BME280;5727;42.600;23.028;2024-03-23T12:49:23;93201.53;;;28.77;19.02
11345;BME280;5727;42.600;23.028;2024-03-23T12:51:54;93210.78;;;25.22;21.02
11345;BME280;5727;42.600;23.028;2024-03-23T12:54:21;93213.50;;;26.07;21.10
11345;BME280;5727;42.600;23.028;2024-03-23T12:56:47;93186.28;;;26.82;20.57
11345;BME280;5727;42.600;23.028;2024-03-23T12:59:14;93205.28;;;27.18;20.40
11345;BME280;5727;42.600;23.028;2024-03-23T13:01:40;93198.00;;;27.28;19.69
11345;BME280;5727;42.600;23.028;2024-03-23T13:04:07;93201.81;;;28.34;19.68
11345;BME280;5727;42.600;23.028;2024-03-23T13:06:36;93197.03;;;28.74;18.95
11345;BME280;5727;42.600;23.028;2024-03-23T13:09:02;93191.16;;;29.68;18.46
11345;BME280;5727;42.600;23.028;2024-03-23T13:11:29;93193.88;;;30.53;17.53
11345;BME280;5727;42.600;23.028;2024-03-23T13:13:55;93181.41;;;29.94;17.62
11345;BME280;5727;42.600;23.028;2024-03-23T13:16:22;93185.00;;;30.15;18.11
11345;BME280;5727;42.600;23.028;2024-03-23T13:18:48;93175.66;;;30.92;17.95
11345;BME280;5727;42.600;23.028;2024-03-23T13:21:15;93163.25;;;30.86;17.09
11345;BME280;5727;42.600;23.028;2024-03-23T13:23:46;93171.44;;;31.20;16.89
11345;BME280;5727;42.600;23.028;2024-03-23T13:26:13;93170.94;;;31.22;16.71
11345;BME280;5727;42.600;23.028;2024-03-23T13:28:39;93168.41;;;27.68;18.54
11345;BME280;5727;42.600;23.028;2024-03-23T13:31:07;93165.31;;;26.25;19.89
11345;BME280;5727;42.600;23.028;2024-03-23T13:33:34;93164.06;;;26.60;19.63
11345;BME280;5727;42.600;23.028;2024-03-23T13:36:01;93158.09;;;27.27;19.58
11345;BME280;5727;42.600;23.028;2024-03-23T13:38:28;93153.88;;;27.65;19.54
11345;BME280;5727;42.600;23.028;2024-03-23T13:40:57;93144.19;;;28.67;19.04
11345;BME280;5727;42.600;23.028;2024-03-23T13:43:24;93137.63;;;28.23;18.61
11345;BME280;5727;42.600;23.028;2024-03-23T13:45:53;93141.19;;;28.47;18.47
11345;BME280;5727;42.600;23.028;2024-03-23T13:48:20;93137.31;;;27.18;19.36
11345;BME280;5727;42.600;23.028;2024-03-23T13:50:47;93134.53;;;26.17;19.76
11345;BME280;5727;42.600;23.028;2024-03-23T13:53:13;93132.09;;;26.32;19.66
11345;BME280;5727;42.600;23.028;2024-03-23T13:55:46;93129.31;;;26.96;19.61